sensor_id;sensor_type;location;lat;lon;timestamp;P1;durP1;ratioP1;P2;durP2;ratioP2
59006;SDS011;44792;52.760;6.726;2023-06-04T00:01:21;2.22;;;1.90;;
59006;SDS011;44792;52.760;6.726;2023-06-04T00:03:47;6.95;;;2.10;;
59006;SDS011;44792;52.760;6.726;2023-06-04T00:06:13;5.10;;;1.75;;
59006;SDS011;44792;52.760;6.726;2023-06-04T00:08:38;2.55;;;1.63;;
59006;SDS011;44792;52.760;6.726;2023-06-04T00:11:04;3.35;;;1.50;;
59006;SDS011;44792;52.760;6.726;2023-06-04T00:13:30;4.40;;;1.92;;
59006;SDS011;44792;52.760;6.726;2023-06-04T00:15:56;4.05;;;1.73;;
59006;SDS011;44792;52.760;6.726;2023-06-04T00:18:21;5.13;;;1.80;;
59006;SDS011;44792;52.760;6.726;2023-06-04T00:20:47;3.20;;;1.80;;
59006;SDS011;44792;52.760;6.726;2023-06-04T00:23:13;3.35;;;2.35;;
59006;SDS011;44792;52.760;6.726;2023-06-04T00:25:38;3.13;;;1.73;;
59006;SDS011;44792;52.760;6.726;2023-06-04T00:28:04;3.35;;;1.58;;
59006;SDS011;44792;52.760;6.726;2023-06-04T00:30:30;4.68;;;2.15;;
59006;SDS011;44792;52.760;6.726;2023-06-04T00:32:56;5.90;;;2.13;;
59006;SDS011;44792;52.760;6.726;2023-06-04T00:35:22;3.05;;;1.98;;
59006;SDS011;44792;52.760;6.726;2023-06-04T00:37:47;7.05;;;2.22;;
59006;SDS011;44792;52.760;6.726;2023-06-04T00:40:13;5.18;;;2.50;;
59006;SDS011;44792;52.760;6.726;2023-06-04T00:42:39;3.17;;;2.40;;
59006;SDS011;44792;52.760;6.726;2023-06-04T00:45:05;5.78;;;2.30;;
59006;SDS011;44792;52.760;6.726;2023-06-04T00:47:33;4.47;;;2.47;;
59006;SDS011;44792;52.760;6.726;2023-06-04T00:49:58;4.15;;;2.15;;
59006;SDS011;44792;52.760;6.726;2023-06-04T00:52:25;5.90;;;2.10;;
59006;SDS011;44792;52.760;6.726;2023-06-04T00:54:51;6.35;;;2.50;;
59006;SDS011;44792;52.760;6.726;2023-06-04T00:57:17;7.95;;;2.50;;
59006;SDS011;44792;52.760;6.726;2023-06-04T00:59:43;7.63;;;3.30;;
59006;SDS011;44792;52.760;6.726;2023-06-04T01:02:11;9.75;;;2.67;;
59006;SDS011;44792;52.760;6.726;2023-06-04T01:07:26;5.18;;;2.70;;
59006;SDS011;44792;52.760;6.726;2023-06-04T01:09:55;5.88;;;2.97;;
59006;SDS011;44792;52.760;6.726;2023-06-04T01:12:21;6.28;;;2.38;;
59006;SDS011;44792;52.760;6.726;2023-06-04T01:14:48;5.15;;;3.13;;
59006;SDS011;44792;52.760;6.726;2023-06-04T01:22:29;8.20;;;2.92;;
59006;SDS011;44792;52.760;6.726;2023-06-04T01:25:21;7.72;;;2.80;;
59006;SDS011;44792;52.760;6.726;2023-06-04T01:27:51;5.50;;;3.17;;
59006;SDS011;44792;52.760;6.726;2023-06-04T01:30:24;5.28;;;2.70;;
59006;SDS011;44792;52.760;6.726;2023-06-04T01:32:55;6.68;;;2.63;;
59006;SDS011;44792;52.760;6.726;2023-06-04T01:35:21;6.97;;;2.90;;
59006;SDS011;44792;52.760;6.726;2023-06-04T01:37:47;7.80;;;3.13;;
59006;SDS011;44792;52.760;6.726;2023-06-04T01:40:14;15.18;;;4.15;;
59006;SDS011;44792;52.760;6.726;2023-06-04T01:42:43;6.28;;;2.88;;
59006;SDS011;44792;52.760;6.726;2023-06-04T01:45:09;5.70;;;2.58;;
59006;SDS011;44792;52.760;6.726;2023-06-04T01:47:36;6.75;;;2.80;;
59006;SDS011;44792;52.760;6.726;2023-06-04T01:50:02;7.63;;;2.88;;
59006;SDS011;44792;52.760;6.726;2023-06-04T01:52:37;8.45;;;3.00;;
59006;SDS011;44792;52.760;6.726;2023-06-04T01:55:06;5.30;;;2.50;;
59006;SDS011;44792;52.760;6.726;2023-06-04T01:57:34;6.15;;;2.65;;
59006;SDS011;44792;52.760;6.726;2023-06-04T02:00:03;6.95;;;2.40;;
59006;SDS011;44792;52.760;6.726;2023-06-04T02:02:35;4.07;;;2.97;;
59006;SDS011;44792;52.760;6.726;2023-06-04T02:05:07;5.90;;;2.88;;
59006;SDS011;44792;52.760;6.726;2023-06-04T02:07:34;10.77;;;2.85;;
59006;SDS011;44792;52.760;6.726;2023-06-04T02:10:10;6.65;;;3.00;;
59006;SDS011;44792;52.760;6.726;2023-06-04T02:12:37;5.68;;;2.75;;
59006;SDS011;44792;52.760;6.726;2023-06-04T02:15:04;7.85;;;3.70;;
59006;SDS011;44792;52.760;6.726;2023-06-04T02:17:30;6.53;;;2.70;;
59006;SDS011;44792;52.760;6.726;2023-06-04T02:20:02;6.53;;;3.30;;
59006;SDS011;44792;52.760;6.726;2023-06-04T02:22:34;5.82;;;2.58;;
59006;SDS011;44792;52.760;6.726;2023-06-04T02:25:00;6.18;;;2.88;;
59006;SDS011;44792;52.760;6.726;2023-06-04T02:27:26;7.35;;;3.50;;
59006;SDS011;44792;52.760;6.726;2023-06-04T02:29:51;4.38;;;2.92;;
59006;SDS011;44792;52.760;6.726;2023-06-04T02:32:17;5.47;;;3.05;;
59006;SDS011;44792;52.760;6.726;2023-06-04T02:34:43;11.20;;;3.08;;
59006;SDS011;44792;52.760;6.726;2023-06-04T02:37:09;7.40;;;2.67;;
59006;SDS011;44792;52.760;6.726;2023-06-04T02:39:35;6.70;;;2.85;;
59006;SDS011;44792;52.760;6.726;2023-06-04T02:42:01;6.55;;;3.08;;
59006;SDS011;44792;52.760;6.726;2023-06-04T02:44:26;7.43;;;3.08;;
59006;SDS011;44792;52.760;6.726;2023-06-04T02:46:54;8.48;;;3.47;;
59006;SDS011;44792;52.760;6.726;2023-06-04T02:49:20;7.40;;;4.47;;
59006;SDS011;44792;52.760;6.726;2023-06-04T02:51:46;7.60;;;3.88;;
59006;SDS011;44792;52.760;6.726;2023-06-04T02:54:12;9.25;;;3.42;;
59006;SDS011;44792;52.760;6.726;2023-06-04T02:56:38;7.40;;;3.83;;
59006;SDS011;44792;52.760;6.726;2023-06-04T02:59:04;6.40;;;3.53;;
59006;SDS011;44792;52.760;6.726;2023-06-04T03:01:30;12.05;;;4.15;;
59006;SDS011;44792;52.760;6.726;2023-06-04T03:03:56;6.57;;;3.97;;
59006;SDS011;44792;52.760;6.726;2023-06-04T03:06:22;7.03;;;3.65;;
59006;SDS011;44792;52.760;6.726;2023-06-04T03:08:51;6.03;;;4.07;;
59006;SDS011;44792;52.760;6.726;2023-06-04T03:11:17;8.68;;;4.35;;
59006;SDS011;44792;52.760;6.726;2023-06-04T03:13:46;9.35;;;4.28;;
59006;SDS011;44792;52.760;6.726;2023-06-04T03:16:12;12.30;;;4.95;;
59006;SDS011;44792;52.760;6.726;2023-06-04T03:18:39;7.65;;;3.90;;
59006;SDS011;44792;52.760;6.726;2023-06-04T03:21:05;8.73;;;3.63;;
59006;SDS011;44792;52.760;6.726;2023-06-04T03:23:31;9.27;;;4.82;;
59006;SDS011;44792;52.760;6.726;2023-06-04T03:25:58;7.75;;;3.97;;
59006;SDS011;44792;52.760;6.726;2023-06-04T03:28:23;8.10;;;3.75;;
59006;SDS011;44792;52.760;6.726;2023-06-04T03:30:49;3.97;;;3.25;;
59006;SDS011;44792;52.760;6.726;2023-06-04T03:33:15;9.15;;;3.78;;
59006;SDS011;44792;52.760;6.726;2023-06-04T03:35:41;8.13;;;3.50;;
59006;SDS011;44792;52.760;6.726;2023-06-04T03:38:06;9.15;;;3.85;;
59006;SDS011;44792;52.760;6.726;2023-06-04T03:40:32;12.90;;;5.45;;
59006;SDS011;44792;52.760;6.726;2023-06-04T03:42:58;7.32;;;3.80;;
59006;SDS011;44792;52.760;6.726;2023-06-04T03:45:25;9.00;;;4.22;;
59006;SDS011;44792;52.760;6.726;2023-06-04T03:47:51;9.32;;;3.45;;
59006;SDS011;44792;52.760;6.726;2023-06-04T03:50:20;7.25;;;4.70;;
59006;SDS011;44792;52.760;6.726;2023-06-04T03:52:46;7.72;;;3.70;;
59006;SDS011;44792;52.760;6.726;2023-06-04T03:55:15;8.38;;;5.13;;
59006;SDS011;44792;52.760;6.726;2023-06-04T03:57:41;9.93;;;3.35;;
59006;SDS011;44792;52.760;6.726;2023-06-04T04:00:10;9.15;;;3.78;;
59006;SDS011;44792;52.760;6.726;2023-06-04T04:02:40;11.57;;;4.82;;
59006;SDS011;44792;52.760;6.726;2023-06-04T04:05:07;7.32;;;3.80;;
59006;SDS011;44792;52.760;6.726;2023-06-04T04:07:34;10.15;;;4.18;;
59006;SDS011;44792;52.760;6.726;2023-06-04T04:10:00;8.48;;;4.65;;
59006;SDS011;44792;52.760;6.726;2023-06-04T04:12:26;10.27;;;4.50;;
59006;SDS011;44792;52.760;6.726;2023-06-04T04:14:52;12.85;;;4.00;;
59006;SDS011;44792;52.760;6.726;2023-06-04T04:17:18;12.80;;;4.80;;
59006;SDS011;44792;52.760;6.726;2023-06-04T04:19:44;7.70;;;4.68;;
59006;SDS011;44792;52.760;6.726;2023-06-04T04:22:10;7.50;;;4.53;;
59006;SDS011;44792;52.760;6.726;2023-06-04T04:24:36;7.07;;;3.72;;
59006;SDS011;44792;52.760;6.726;2023-06-04T04:27:03;9.77;;;4.95;;
59006;SDS011;44792;52.760;6.726;2023-06-04T04:29:29;8.38;;;3.75;;
59006;SDS011;44792;52.760;6.726;2023-06-04T04:31:59;9.10;;;4.28;;
59006;SDS011;44792;52.760;6.726;2023-06-04T04:34:26;10.00;;;4.68;;
59006;SDS011;44792;52.760;6.726;2023-06-04T04:36:52;8.43;;;4.10;;
59006;SDS011;44792;52.760;6.726;2023-06-04T04:39:24;9.40;;;4.28;;
59006;SDS011;44792;52.760;6.726;2023-06-04T04:41:54;8.93;;;4.28;;
59006;SDS011;44792;52.760;6.726;2023-06-04T04:44:20;10.80;;;4.70;;
59006;SDS011;44792;52.760;6.726;2023-06-04T04:46:47;10.60;;;4.90;;
59006;SDS011;44792;52.760;6.726;2023-06-04T04:49:13;9.27;;;5.07;;
59006;SDS011;44792;52.760;6.726;2023-06-04T04:51:39;7.47;;;3.92;;
59006;SDS011;44792;52.760;6.726;2023-06-04T04:54:05;8.23;;;4.35;;
59006;SDS011;44792;52.760;6.726;2023-06-04T04:56:33;10.02;;;4.82;;
59006;SDS011;44792;52.760;6.726;2023-06-04T04:59:02;11.93;;;3.85;;
59006;SDS011;44792;52.760;6.726;2023-06-04T05:01:27;9.23;;;4.40;;
59006;SDS011;44792;52.760;6.726;2023-06-04T05:03:55;7.65;;;4.38;;
59006;SDS011;44792;52.760;6.726;2023-06-04T05:06:21;8.18;;;4.35;;
59006;SDS011;44792;52.760;6.726;2023-06-04T05:08:50;11.73;;;4.38;;
59006;SDS011;44792;52.760;6.726;2023-06-04T05:11:15;19.83;;;5.20;;
59006;SDS011;44792;52.760;6.726;2023-06-04T05:13:41;8.32;;;3.97;;
59006;SDS011;44792;52.760;6.726;2023-06-04T05:16:07;9.07;;;4.82;;
59006;SDS011;44792;52.760;6.726;2023-06-04T05:18:33;8.93;;;5.00;;
59006;SDS011;44792;52.760;6.726;2023-06-04T05:20:59;11.32;;;4.72;;
59006;SDS011;44792;52.760;6.726;2023-06-04T05:23:27;10.50;;;5.22;;
59006;SDS011;44792;52.760;6.726;2023-06-04T05:25:55;9.43;;;4.40;;
59006;SDS011;44792;52.760;6.726;2023-06-04T05:28:21;7.93;;;4.10;;
59006;SDS011;44792;52.760;6.726;2023-06-04T05:30:52;10.65;;;5.68;;
59006;SDS011;44792;52.760;6.726;2023-06-04T05:33:24;8.13;;;3.70;;
59006;SDS011;44792;52.760;6.726;2023-06-04T05:35:50;10.27;;;4.43;;
59006;SDS011;44792;52.760;6.726;2023-06-04T05:38:25;6.85;;;3.53;;
59006;SDS011;44792;52.760;6.726;2023-06-04T05:40:54;11.00;;;4.60;;
59006;SDS011;44792;52.760;6.726;2023-06-04T05:43:21;11.32;;;3.85;;
59006;SDS011;44792;52.760;6.726;2023-06-04T05:45:46;9.35;;;4.15;;
59006;SDS011;44792;52.760;6.726;2023-06-04T05:48:13;7.88;;;3.97;;
59006;SDS011;44792;52.760;6.726;2023-06-04T05:50:38;5.85;;;3.42;;
59006;SDS011;44792;52.760;6.726;2023-06-04T05:53:04;7.20;;;3.72;;
59006;SDS011;44792;52.760;6.726;2023-06-04T05:55:30;6.63;;;3.50;;
59006;SDS011;44792;52.760;6.726;2023-06-04T05:57:56;10.13;;;3.47;;
59006;SDS011;44792;52.760;6.726;2023-06-04T06:00:22;9.65;;;3.30;;
59006;SDS011;44792;52.760;6.726;2023-06-04T06:02:51;7.00;;;3.40;;
59006;SDS011;44792;52.760;6.726;2023-06-04T06:05:18;6.88;;;3.20;;
59006;SDS011;44792;52.760;6.726;2023-06-04T06:07:45;11.20;;;4.65;;
59006;SDS011;44792;52.760;6.726;2023-06-04T06:10:11;9.10;;;3.50;;
59006;SDS011;44792;52.760;6.726;2023-06-04T06:12:37;8.80;;;3.30;;
59006;SDS011;44792;52.760;6.726;2023-06-04T06:15:03;8.80;;;3.45;;
59006;SDS011;44792;52.760;6.726;2023-06-04T06:17:30;8.05;;;4.05;;
59006;SDS011;44792;52.760;6.726;2023-06-04T06:19:55;10.98;;;3.90;;
59006;SDS011;44792;52.760;6.726;2023-06-04T06:22:22;9.95;;;3.15;;
59006;SDS011;44792;52.760;6.726;2023-06-04T06:24:47;6.68;;;3.25;;
59006;SDS011;44792;52.760;6.726;2023-06-04T06:27:14;9.38;;;4.20;;
59006;SDS011;44792;52.760;6.726;2023-06-04T06:29:41;6.13;;;3.45;;
59006;SDS011;44792;52.760;6.726;2023-06-04T06:32:07;11.95;;;3.20;;
59006;SDS011;44792;52.760;6.726;2023-06-04T06:34:33;9.52;;;3.58;;
59006;SDS011;44792;52.760;6.726;2023-06-04T06:36:59;8.95;;;3.30;;
59006;SDS011;44792;52.760;6.726;2023-06-04T06:39:25;6.15;;;3.42;;
59006;SDS011;44792;52.760;6.726;2023-06-04T06:41:54;8.13;;;3.47;;
59006;SDS011;44792;52.760;6.726;2023-06-04T06:44:20;5.35;;;3.55;;
59006;SDS011;44792;52.760;6.726;2023-06-04T06:46:45;6.13;;;3.97;;
59006;SDS011;44792;52.760;6.726;2023-06-04T06:49:14;5.60;;;3.60;;
59006;SDS011;44792;52.760;6.726;2023-06-04T06:51:40;5.57;;;3.58;;
59006;SDS011;44792;52.760;6.726;2023-06-04T06:54:08;5.68;;;3.75;;
59006;SDS011;44792;52.760;6.726;2023-06-04T06:56:34;8.07;;;3.45;;
59006;SDS011;44792;52.760;6.726;2023-06-04T06:59:00;6.88;;;3.72;;
59006;SDS011;44792;52.760;6.726;2023-06-04T07:01:25;4.03;;;2.50;;
59006;SDS011;44792;52.760;6.726;2023-06-04T07:03:51;8.95;;;2.50;;
59006;SDS011;44792;52.760;6.726;2023-06-04T07:06:17;10.02;;;3.33;;
59006;SDS011;44792;52.760;6.726;2023-06-04T07:08:43;8.48;;;3.05;;
59006;SDS011;44792;52.760;6.726;2023-06-04T07:11:09;4.50;;;2.78;;
59006;SDS011;44792;52.760;6.726;2023-06-04T07:13:37;4.20;;;2.45;;
59006;SDS011;44792;52.760;6.726;2023-06-04T07:16:04;7.20;;;2.47;;
59006;SDS011;44792;52.760;6.726;2023-06-04T07:18:32;7.07;;;2.17;;
59006;SDS011;44792;52.760;6.726;2023-06-04T07:21:00;6.18;;;2.50;;
59006;SDS011;44792;52.760;6.726;2023-06-04T07:23:26;5.68;;;2.67;;
59006;SDS011;44792;52.760;6.726;2023-06-04T07:25:52;4.03;;;2.15;;
59006;SDS011;44792;52.760;6.726;2023-06-04T07:28:20;3.70;;;2.20;;
59006;SDS011;44792;52.760;6.726;2023-06-04T07:30:46;4.50;;;2.20;;
59006;SDS011;44792;52.760;6.726;2023-06-04T07:33:12;3.80;;;1.88;;
59006;SDS011;44792;52.760;6.726;2023-06-04T07:35:37;6.43;;;2.30;;
59006;SDS011;44792;52.760;6.726;2023-06-04T07:38:03;6.03;;;2.20;;
59006;SDS011;44792;52.760;6.726;2023-06-04T07:40:29;5.53;;;1.83;;
59006;SDS011;44792;52.760;6.726;2023-06-04T07:42:55;4.88;;;2.15;;
59006;SDS011;44792;52.760;6.726;2023-06-04T07:45:20;5.72;;;1.58;;
59006;SDS011;44792;52.760;6.726;2023-06-04T07:47:46;6.15;;;1.60;;
59006;SDS011;44792;52.760;6.726;2023-06-04T07:50:12;5.03;;;1.58;;
59006;SDS011;44792;52.760;6.726;2023-06-04T07:52:38;4.53;;;2.00;;
59006;SDS011;44792;52.760;6.726;2023-06-04T07:55:04;5.57;;;1.80;;
59006;SDS011;44792;52.760;6.726;2023-06-04T07:57:30;5.25;;;1.98;;
59006;SDS011;44792;52.760;6.726;2023-06-04T07:59:56;3.97;;;1.40;;
59006;SDS011;44792;52.760;6.726;2023-06-04T08:02:22;5.25;;;1.30;;
59006;SDS011;44792;52.760;6.726;2023-06-04T08:04:48;6.38;;;1.70;;
59006;SDS011;44792;52.760;6.726;2023-06-04T08:07:15;4.38;;;1.75;;
59006;SDS011;44792;52.760;6.726;2023-06-04T08:09:40;8.85;;;1.88;;
59006;SDS011;44792;52.760;6.726;2023-06-04T08:12:06;4.97;;;1.67;;
59006;SDS011;44792;52.760;6.726;2023-06-04T08:14:32;4.57;;;1.73;;
59006;SDS011;44792;52.760;6.726;2023-06-04T08:16:58;4.65;;;1.58;;
59006;SDS011;44792;52.760;6.726;2023-06-04T08:19:23;3.60;;;1.52;;
59006;SDS011;44792;52.760;6.726;2023-06-04T08:21:49;2.55;;;1.25;;
59006;SDS011;44792;52.760;6.726;2023-06-04T08:24:15;6.28;;;1.63;;
59006;SDS011;44792;52.760;6.726;2023-06-04T08:26:41;3.78;;;1.40;;
59006;SDS011;44792;52.760;6.726;2023-06-04T08:29:10;5.68;;;1.40;;
59006;SDS011;44792;52.760;6.726;2023-06-04T08:31:36;7.75;;;1.27;;
59006;SDS011;44792;52.760;6.726;2023-06-04T08:34:01;3.58;;;1.30;;
59006;SDS011;44792;52.760;6.726;2023-06-04T08:36:30;3.95;;;1.27;;
59006;SDS011;44792;52.760;6.726;2023-06-04T08:38:57;3.50;;;1.50;;
59006;SDS011;44792;52.760;6.726;2023-06-04T08:41:31;3.67;;;1.67;;
59006;SDS011;44792;52.760;6.726;2023-06-04T08:44:04;3.78;;;1.30;;
59006;SDS011;44792;52.760;6.726;2023-06-04T08:46:34;3.30;;;1.33;;
59006;SDS011;44792;52.760;6.726;2023-06-04T08:49:08;6.47;;;1.30;;
59006;SDS011;44792;52.760;6.726;2023-06-04T08:51:36;6.32;;;1.63;;
59006;SDS011;44792;52.760;6.726;2023-06-04T08:54:05;5.93;;;1.40;;
59006;SDS011;44792;52.760;6.726;2023-06-04T08:56:33;3.25;;;1.90;;
59006;SDS011;44792;52.760;6.726;2023-06-04T08:59:04;3.90;;;1.55;;
59006;SDS011;44792;52.760;6.726;2023-06-04T09:04:03;5.25;;;1.98;;
59006;SDS011;44792;52.760;6.726;2023-06-04T09:06:31;3.38;;;1.42;;
59006;SDS011;44792;52.760;6.726;2023-06-04T09:08:58;5.28;;;1.40;;
59006;SDS011;44792;52.760;6.726;2023-06-04T09:11:33;2.85;;;1.55;;
59006;SDS011;44792;52.760;6.726;2023-06-04T09:14:07;4.78;;;1.10;;
59006;SDS011;44792;52.760;6.726;2023-06-04T09:16:42;2.55;;;1.30;;
59006;SDS011;44792;52.760;6.726;2023-06-04T09:19:12;2.55;;;1.00;;
59006;SDS011;44792;52.760;6.726;2023-06-04T09:24:17;3.30;;;1.15;;
59006;SDS011;44792;52.760;6.726;2023-06-04T09:26:43;2.13;;;1.05;;
59006;SDS011;44792;52.760;6.726;2023-06-04T09:29:10;3.47;;;1.27;;
59006;SDS011;44792;52.760;6.726;2023-06-04T09:31:36;2.97;;;1.35;;
59006;SDS011;44792;52.760;6.726;2023-06-04T09:34:05;4.30;;;1.45;;
59006;SDS011;44792;52.760;6.726;2023-06-04T09:36:32;3.42;;;1.58;;
59006;SDS011;44792;52.760;6.726;2023-06-04T09:39:00;2.17;;;1.13;;
59006;SDS011;44792;52.760;6.726;2023-06-04T09:41:30;2.17;;;1.05;;
59006;SDS011;44792;52.760;6.726;2023-06-04T09:44:02;3.70;;;1.25;;
59006;SDS011;44792;52.760;6.726;2023-06-04T09:46:28;4.78;;;1.48;;
59006;SDS011;44792;52.760;6.726;2023-06-04T09:49:02;6.50;;;1.38;;
59006;SDS011;44792;52.760;6.726;2023-06-04T09:51:29;1.55;;;1.27;;
59006;SDS011;44792;52.760;6.726;2023-06-04T09:54:00;3.25;;;1.27;;
59006;SDS011;44792;52.760;6.726;2023-06-04T09:56:28;3.65;;;1.25;;
59006;SDS011;44792;52.760;6.726;2023-06-04T09:58:58;2.10;;;1.10;;
59006;SDS011;44792;52.760;6.726;2023-06-04T10:01:28;3.67;;;1.35;;
59006;SDS011;44792;52.760;6.726;2023-06-04T10:03:55;2.55;;;1.27;;
59006;SDS011;44792;52.760;6.726;2023-06-04T10:08:55;2.35;;;1.17;;
59006;SDS011;44792;52.760;6.726;2023-06-04T10:11:30;3.08;;;1.02;;
59006;SDS011;44792;52.760;6.726;2023-06-04T10:16:27;2.75;;;1.10;;
59006;SDS011;44792;52.760;6.726;2023-06-04T10:18:55;1.27;;;1.13;;
59006;SDS011;44792;52.760;6.726;2023-06-04T10:21:22;6.63;;;2.08;;
59006;SDS011;44792;52.760;6.726;2023-06-04T10:23:49;4.82;;;1.10;;
59006;SDS011;44792;52.760;6.726;2023-06-04T10:26:15;2.58;;;1.17;;
59006;SDS011;44792;52.760;6.726;2023-06-04T10:28:42;2.42;;;1.35;;
59006;SDS011;44792;52.760;6.726;2023-06-04T10:31:08;2.47;;;1.30;;
59006;SDS011;44792;52.760;6.726;2023-06-04T10:33:35;3.67;;;1.27;;
59006;SDS011;44792;52.760;6.726;2023-06-04T10:36:14;2.38;;;1.15;;
59006;SDS011;44792;52.760;6.726;2023-06-04T10:38:49;6.90;;;1.20;;
59006;SDS011;44792;52.760;6.726;2023-06-04T10:41:22;2.60;;;1.23;;
59006;SDS011;44792;52.760;6.726;2023-06-04T10:43:49;4.30;;;1.30;;
59006;SDS011;44792;52.760;6.726;2023-06-04T10:46:17;5.15;;;1.17;;
59006;SDS011;44792;52.760;6.726;2023-06-04T10:51:29;4.82;;;1.20;;
59006;SDS011;44792;52.760;6.726;2023-06-04T10:53:56;2.42;;;1.55;;
59006;SDS011;44792;52.760;6.726;2023-06-04T10:58:59;1.67;;;1.00;;
59006;SDS011;44792;52.760;6.726;2023-06-04T11:01:26;1.95;;;0.98;;
59006;SDS011;44792;52.760;6.726;2023-06-04T11:04:00;4.82;;;1.02;;
59006;SDS011;44792;52.760;6.726;2023-06-04T11:06:25;4.47;;;1.27;;
59006;SDS011;44792;52.760;6.726;2023-06-04T11:09:02;5.05;;;1.20;;
59006;SDS011;44792;52.760;6.726;2023-06-04T11:11:29;3.28;;;1.52;;
59006;SDS011;44792;52.760;6.726;2023-06-04T11:13:55;3.53;;;1.40;;
59006;SDS011;44792;52.760;6.726;2023-06-04T11:16:21;2.03;;;1.40;;
59006;SDS011;44792;52.760;6.726;2023-06-04T11:18:56;2.38;;;1.45;;
59006;SDS011;44792;52.760;6.726;2023-06-04T11:21:24;2.15;;;1.05;;
59006;SDS011;44792;52.760;6.726;2023-06-04T11:23:59;1.67;;;1.30;;
59006;SDS011;44792;52.760;6.726;2023-06-04T11:26:32;3.72;;;1.40;;
59006;SDS011;44792;52.760;6.726;2023-06-04T11:29:05;3.88;;;1.05;;
59006;SDS011;44792;52.760;6.726;2023-06-04T11:34:23;3.08;;;1.58;;
59006;SDS011;44792;52.760;6.726;2023-06-04T11:36:53;4.72;;;1.25;;
59006;SDS011;44792;52.760;6.726;2023-06-04T11:39:20;2.60;;;1.35;;
59006;SDS011;44792;52.760;6.726;2023-06-04T11:41:46;5.57;;;1.48;;
59006;SDS011;44792;52.760;6.726;2023-06-04T11:44:18;4.63;;;1.45;;
59006;SDS011;44792;52.760;6.726;2023-06-04T11:46:44;2.08;;;1.10;;
59006;SDS011;44792;52.760;6.726;2023-06-04T11:49:17;3.10;;;1.25;;
59006;SDS011;44792;52.760;6.726;2023-06-04T11:51:51;6.03;;;1.13;;
59006;SDS011;44792;52.760;6.726;2023-06-04T11:54:19;3.75;;;1.35;;
59006;SDS011;44792;52.760;6.726;2023-06-04T11:56:46;6.57;;;1.60;;
59006;SDS011;44792;52.760;6.726;2023-06-04T11:59:15;2.92;;;1.35;;
59006;SDS011;44792;52.760;6.726;2023-06-04T12:01:42;3.05;;;1.38;;
59006;SDS011;44792;52.760;6.726;2023-06-04T12:04:16;1.80;;;1.13;;
59006;SDS011;44792;52.760;6.726;2023-06-04T12:06:50;3.75;;;1.60;;
59006;SDS011;44792;52.760;6.726;2023-06-04T12:09:25;3.22;;;1.27;;
59006;SDS011;44792;52.760;6.726;2023-06-04T12:12:07;3.00;;;1.45;;
59006;SDS011;44792;52.760;6.726;2023-06-04T12:14:33;4.18;;;1.50;;
59006;SDS011;44792;52.760;6.726;2023-06-04T12:17:00;4.78;;;1.80;;
59006;SDS011;44792;52.760;6.726;2023-06-04T12:19:33;2.08;;;1.17;;
59006;SDS011;44792;52.760;6.726;2023-06-04T12:22:10;1.15;;;1.05;;
59006;SDS011;44792;52.760;6.726;2023-06-04T12:24:50;1.83;;;1.13;;
59006;SDS011;44792;52.760;6.726;2023-06-04T12:27:24;4.35;;;1.38;;
59006;SDS011;44792;52.760;6.726;2023-06-04T12:29:54;4.32;;;1.10;;
59006;SDS011;44792;52.760;6.726;2023-06-04T12:32:23;1.95;;;1.10;;
59006;SDS011;44792;52.760;6.726;2023-06-04T12:34:49;2.55;;;1.17;;
59006;SDS011;44792;52.760;6.726;2023-06-04T12:37:15;2.47;;;1.27;;
59006;SDS011;44792;52.760;6.726;2023-06-04T12:39:41;3.28;;;1.55;;
59006;SDS011;44792;52.760;6.726;2023-06-04T12:42:08;2.28;;;0.95;;
59006;SDS011;44792;52.760;6.726;2023-06-04T12:44:40;2.90;;;1.40;;
59006;SDS011;44792;52.760;6.726;2023-06-04T12:49:32;2.53;;;1.10;;
59006;SDS011;44792;52.760;6.726;2023-06-04T12:51:58;5.90;;;1.60;;
59006;SDS011;44792;52.760;6.726;2023-06-04T12:54:24;3.97;;;1.10;;
59006;SDS011;44792;52.760;6.726;2023-06-04T12:56:50;4.82;;;1.40;;
59006;SDS011;44792;52.760;6.726;2023-06-04T12:59:16;1.85;;;1.10;;
59006;SDS011;44792;52.760;6.726;2023-06-04T13:01:45;3.33;;;2.28;;
59006;SDS011;44792;52.760;6.726;2023-06-04T13:04:10;2.15;;;1.20;;
59006;SDS011;44792;52.760;6.726;2023-06-04T13:06:37;4.95;;;1.35;;
59006;SDS011;44792;52.760;6.726;2023-06-04T13:09:03;3.47;;;1.35;;
59006;SDS011;44792;52.760;6.726;2023-06-04T13:11:35;2.47;;;1.08;;
59006;SDS011;44792;52.760;6.726;2023-06-04T13:14:03;2.70;;;1.23;;
59006;SDS011;44792;52.760;6.726;2023-06-04T13:16:28;2.38;;;1.00;;
59006;SDS011;44792;52.760;6.726;2023-06-04T13:18:54;4.18;;;1.30;;
59006;SDS011;44792;52.760;6.726;2023-06-04T13:21:20;2.25;;;1.35;;
59006;SDS011;44792;52.760;6.726;2023-06-04T13:23:46;2.38;;;1.20;;
59006;SDS011;44792;52.760;6.726;2023-06-04T13:26:12;2.67;;;1.20;;
59006;SDS011;44792;52.760;6.726;2023-06-04T13:28:38;2.50;;;1.20;;
59006;SDS011;44792;52.760;6.726;2023-06-04T13:31:04;1.92;;;1.48;;
59006;SDS011;44792;52.760;6.726;2023-06-04T13:33:30;3.78;;;1.35;;
59006;SDS011;44792;52.760;6.726;2023-06-04T13:35:55;2.05;;;1.23;;
59006;SDS011;44792;52.760;6.726;2023-06-04T13:38:21;2.17;;;1.02;;
59006;SDS011;44792;52.760;6.726;2023-06-04T13:40:47;1.95;;;1.15;;
59006;SDS011;44792;52.760;6.726;2023-06-04T13:43:12;3.20;;;1.20;;
59006;SDS011;44792;52.760;6.726;2023-06-04T13:45:38;2.95;;;1.35;;
59006;SDS011;44792;52.760;6.726;2023-06-04T13:48:05;3.08;;;1.42;;
59006;SDS011;44792;52.760;6.726;2023-06-04T13:50:32;2.90;;;1.50;;
59006;SDS011;44792;52.760;6.726;2023-06-04T13:52:59;3.00;;;1.40;;
59006;SDS011;44792;52.760;6.726;2023-06-04T13:55:24;4.15;;;1.85;;
59006;SDS011;44792;52.760;6.726;2023-06-04T13:57:50;1.90;;;1.02;;
59006;SDS011;44792;52.760;6.726;2023-06-04T14:00:16;3.40;;;1.17;;
59006;SDS011;44792;52.760;6.726;2023-06-04T14:02:42;1.33;;;1.00;;
59006;SDS011;44792;52.760;6.726;2023-06-04T14:05:07;3.28;;;2.03;;
59006;SDS011;44792;52.760;6.726;2023-06-04T14:07:33;2.70;;;1.25;;
59006;SDS011;44792;52.760;6.726;2023-06-04T14:10:00;2.60;;;1.20;;
59006;SDS011;44792;52.760;6.726;2023-06-04T14:12:28;3.17;;;1.38;;
59006;SDS011;44792;52.760;6.726;2023-06-04T14:14:54;2.38;;;1.25;;
59006;SDS011;44792;52.760;6.726;2023-06-04T14:17:20;1.63;;;1.00;;
59006;SDS011;44792;52.760;6.726;2023-06-04T14:19:45;2.25;;;1.27;;
59006;SDS011;44792;52.760;6.726;2023-06-04T14:22:11;2.30;;;1.08;;
59006;SDS011;44792;52.760;6.726;2023-06-04T14:24:37;1.70;;;1.27;;
59006;SDS011;44792;52.760;6.726;2023-06-04T14:27:05;1.40;;;1.00;;
59006;SDS011;44792;52.760;6.726;2023-06-04T14:29:32;3.50;;;1.42;;
59006;SDS011;44792;52.760;6.726;2023-06-04T14:31:57;5.75;;;1.13;;
59006;SDS011;44792;52.760;6.726;2023-06-04T14:34:23;2.17;;;1.25;;
59006;SDS011;44792;52.760;6.726;2023-06-04T14:36:49;1.50;;;1.08;;
59006;SDS011;44792;52.760;6.726;2023-06-04T14:39:15;2.05;;;1.20;;
59006;SDS011;44792;52.760;6.726;2023-06-04T14:41:40;2.45;;;1.48;;
59006;SDS011;44792;52.760;6.726;2023-06-04T14:44:06;1.88;;;1.20;;
59006;SDS011;44792;52.760;6.726;2023-06-04T14:46:32;3.20;;;1.27;;
59006;SDS011;44792;52.760;6.726;2023-06-04T14:48:57;2.38;;;1.20;;
59006;SDS011;44792;52.760;6.726;2023-06-04T14:51:23;2.97;;;1.30;;
59006;SDS011;44792;52.760;6.726;2023-06-04T14:53:49;2.45;;;1.10;;
59006;SDS011;44792;52.760;6.726;2023-06-04T14:56:16;5.05;;;1.20;;
59006;SDS011;44792;52.760;6.726;2023-06-04T14:58:43;1.80;;;1.20;;
59006;SDS011;44792;52.760;6.726;2023-06-04T15:01:09;3.85;;;1.50;;
59006;SDS011;44792;52.760;6.726;2023-06-04T15:03:37;3.17;;;1.30;;
59006;SDS011;44792;52.760;6.726;2023-06-04T15:06:04;3.05;;;1.30;;
59006;SDS011;44792;52.760;6.726;2023-06-04T15:08:30;1.95;;;1.10;;
59006;SDS011;44792;52.760;6.726;2023-06-04T15:10:55;3.08;;;1.45;;
59006;SDS011;44792;52.760;6.726;2023-06-04T15:13:21;2.13;;;1.40;;
59006;SDS011;44792;52.760;6.726;2023-06-04T15:15:47;3.60;;;1.05;;